Nearby METAR Reports

 

KMTN - Baltimore/Martin, Maryland, USA
Distance from station: SSE 8mi, 13km
Updated: Mon, 22-Dec-2014 4:03am EST
Clear
Clear
 Wind from calm
Wind: Calm
Temperature: 28°F , -2°C
Dew Point: 27°F , -3°C
Humidity: 93%
Barometer: 30.33 inHg , 1027.1 hPa
Clouds: Clear
Visibility: 10 miles , 16 km
2014/12/22 09:03 KMTN 220903Z AUTO 00000KT 10SM CLR M02/M03 A3033 RMK AO2
KDMH - Baltimore/Dwntwn, Maryland, USA
Distance from station: SW 12mi, 19km
Updated: Mon, 22-Dec-2014 3:54am EST

 
Temperature: 32°F , 0°C
Dew Point: 21°F , -6°C
Humidity: 64%
Barometer: 30.31 inHg , 1026.4 hPa
2014/12/22 08:54 KDMH 220854Z AUTO 00/M06 A3031 RMK AO1 SLP262 T00001056 58006
 
KBWI - Balto/Wash Intl, Maryland, USA
Distance from station: SSW 20mi, 33km
Updated: Mon, 22-Dec-2014 3:54am EST
Mostly cloudy
Mostly cloudy
 Wind from calm
Wind: Calm
Temperature: 27°F , -3°C
Dew Point: 21°F , -6°C
Humidity: 80%
Barometer: 30.30 inHg , 1026.1 hPa
Clouds: Mostly cloudy
Visibility: 7 miles , 11 km
Cloud details: Mostly cloudy 25000 ft
2014/12/22 08:54 KBWI 220854Z 00000KT 7SM BKN250 M03/M06 A3030 RMK AO2 SLP262 T10281056 58007
KDMW - Carroll Cnty, Maryland, USA
Distance from station: WNW 30mi, 48km
Updated: Mon, 22-Dec-2014 4:00am EST
Mist, Partly cloudy
Mist, Partly cloudy
 Wind from NE
Wind: NE 3 mph , 6 km/h
Temperature: 21°F , -6°C
Dew Point: 19°F , -7°C
Humidity: 93%
Barometer: 30.27 inHg , 1025.1 hPa
Summary: Mist
Clouds: Partly cloudy
Visibility: 5 miles , 8 km
Cloud details: Partly cloudy 8500 ft
2014/12/22 09:00 KDMW 220900Z AUTO 05003KT 5SM BR SCT085 M06/M07 A3027 RMK AO2
 
KNAK - Annapolis/Naval, Maryland, USA
Distance from station: S 30mi, 48km
Updated: Mon, 22-Dec-2014 3:54am EST
Haze, Clear
Haze, Clear
 Wind from NNW
Wind: NNW 3 mph , 6 km/h
Temperature: 32°F , 0°C
Dew Point: 27°F , -3°C
Humidity: 80%
Barometer: 30.31 inHg , 1026.4 hPa
Summary: Haze
Clouds: Clear
Visibility: 5 miles , 8 km
2014/12/22 08:54 KNAK 220854Z AUTO 34003KT 5SM HZ CLR 00/M03 A3031 RMK AO2 SLP264 T00001028 58008 $
KW29 - Stevensville, Maryland, USA
Distance from station: SSE 31mi, 50km
Updated: Mon, 22-Dec-2014 4:00am EST

 Wind from calm
Wind: Calm
Temperature: 32°F , 0°C
Dew Point: 28°F , -2°C
Humidity: 87%
Barometer: 30.31 inHg , 1026.4 hPa
Visibility: 10 miles , 16 km
2014/12/22 09:00 KW29 220900Z AUTO 00000KT 10SM 00/M02 A3031 RMK AO1
 
KCGS - College Park, Maryland, USA
Distance from station: SW 38mi, 61km
Updated: Mon, 22-Dec-2014 4:00am EST
Partly cloudy
Partly cloudy
 Wind from calm
Wind: Calm
Temperature: 28°F , -2°C
Dew Point: 27°F , -3°C
Humidity: 93%
Barometer: 30.30 inHg , 1026.1 hPa
Clouds: Partly cloudy
Visibility: 7 miles , 11 km
Cloud details: Partly cloudy 4600 ft
2014/12/22 09:00 KCGS 220900Z AUTO 00000KT 7SM SCT046 M02/M03 A3030 RMK AO1
KGAI - Gaithersburg, Maryland, USA
Distance from station: WSW 40mi, 65km
Updated: Mon, 22-Dec-2014 3:55am EST
Clear
Clear
 Wind from calm
Wind: Calm
Temperature: 27°F , -3°C
Dew Point: 21°F , -6°C
Humidity: 80%
Barometer: 30.31 inHg , 1026.4 hPa
Clouds: Clear
Visibility: 9 miles , 14 km
2014/12/22 08:55 KGAI 220855Z 00000KT 9SM CLR M03/M06 A3031 RMK AO1 57014
 
KTHV - York, Pennsylvania, USA
Distance from station: NNW 40mi, 65km
Updated: Mon, 22-Dec-2014 3:53am EST
Mist, Clear
Mist, Clear
 Wind from calm
Wind: Calm
Temperature: 18°F , -8°C
Dew Point: 16°F , -9°C
Humidity: 93%
Barometer: 30.29 inHg , 1025.7 hPa
Summary: Mist
Clouds: Clear
Visibility: 6 miles , 10 km
2014/12/22 08:53 KTHV 220853Z AUTO 00000KT 6SM BR CLR M08/M09 A3029 RMK AO2 SLP268 I3000 T10781094 58005
KFDK - Frederick, Maryland, USA
Distance from station: W 47mi, 75km
Updated: Mon, 22-Dec-2014 4:00am EST
Mist, Clear
Mist, Clear
 Wind from calm
Wind: Calm
Temperature: 23°F , -5°C
Dew Point: 19°F , -7°C
Humidity: 86%
Barometer: 30.32 inHg , 1026.8 hPa
Summary: Mist
Clouds: Clear
Visibility: 5 miles , 8 km
2014/12/22 09:00 KFDK 220900Z AUTO 00000KT 5SM BR CLR M05/M07 A3032 RMK AO2
 
KESN - Easton/Newnam, Maryland, USA
Distance from station: SSE 48mi, 78km
Updated: Mon, 22-Dec-2014 4:15am EST
Clear
Clear
 Wind from E
Wind: E 3 mph , 6 km/h
Temperature: 30°F , -1°C
Dew Point: 27°F , -3°C
Humidity: 86%
Barometer: 30.33 inHg , 1027.1 hPa
Clouds: Clear
Visibility: 7 miles , 11 km
2014/12/22 09:15 KESN 220915Z AUTO 09003KT 7SM CLR M01/M03 A3033 RMK AO2 T10121026
KDCA - Washington/Natl, Washington D.c., USA
Distance from station: SW 49mi, 79km
Updated: Mon, 22-Dec-2014 3:52am EST
Overcast
Overcast
 Wind from ENE
Wind: ENE 6 mph , 9 km/h
Temperature: 34°F , 1°C
Wind Chill: 29°F , -2°C
Dew Point: 25°F , -4°C
Humidity: 70%
Barometer: 30.31 inHg , 1026.4 hPa
Clouds: Overcast
Visibility: 7 miles , 11 km
Cloud details: Overcast 4700 ft
2014/12/22 08:52 KDCA 220852Z 06005KT 7SM OVC047 01/M04 A3031 RMK AO2 SLP264 T00061044 58012
 
KLNS - Lancaster, Pennsylvania, USA
Distance from station: N 49mi, 79km
Updated: Mon, 22-Dec-2014 3:53am EST
Mist, Clear
Mist, Clear
 Wind from calm
Wind: Calm
Temperature: 19°F , -7°C
Dew Point: 18°F , -8°C
Humidity: 93%
Barometer: 30.31 inHg , 1026.4 hPa
Summary: Mist
Clouds: Clear
Visibility: 5 miles , 8 km
2014/12/22 08:53 KLNS 220853Z AUTO 00000KT 5SM BR CLR M07/M08 A3031 RMK AO2 SLP270 I3000 T10671083 50004
KILG - Wilmington, Delaware, USA
Distance from station: ENE 50mi, 81km
Updated: Mon, 22-Dec-2014 3:51am EST
Mist, Clear
Mist, Clear
 Wind from NNW
Wind: NNW 3 mph , 6 km/h
Temperature: 25°F , -4°C
Dew Point: 21°F , -6°C
Humidity: 86%
Barometer: 30.33 inHg , 1027.1 hPa
Summary: Mist
Clouds: Clear
Visibility: 6 miles , 10 km
2014/12/22 08:51 KILG 220851Z AUTO 33003KT 6SM BR CLR M04/M06 A3033 RMK AO2 SLP272 T10441061 58001